sensor_id;sensor_type;location;lat;lon;timestamp;P1;durP1;ratioP1;P2;durP2;ratioP2
10463;SDS011;5279;42.048;24.638;2023-07-29T00:00:44;2.53;;;1.67;;
10463;SDS011;5279;42.048;24.638;2023-07-29T00:03:13;1.70;;;1.60;;
10463;SDS011;5279;42.048;24.638;2023-07-29T00:05:40;2.47;;;2.10;;
10463;SDS011;5279;42.048;24.638;2023-07-29T00:08:07;1.70;;;1.60;;
10463;SDS011;5279;42.048;24.638;2023-07-29T00:10:35;2.77;;;1.90;;
10463;SDS011;5279;42.048;24.638;2023-07-29T00:13:04;1.80;;;1.70;;
10463;SDS011;5279;42.048;24.638;2023-07-29T00:15:30;2.40;;;1.93;;
10463;SDS011;5279;42.048;24.638;2023-07-29T00:17:57;1.87;;;1.67;;
10463;SDS011;5279;42.048;24.638;2023-07-29T00:20:26;3.10;;;2.23;;
10463;SDS011;5279;42.048;24.638;2023-07-29T00:22:53;1.77;;;1.60;;
10463;SDS011;5279;42.048;24.638;2023-07-29T00:25:20;1.70;;;1.60;;
10463;SDS011;5279;42.048;24.638;2023-07-29T00:27:47;1.80;;;1.60;;
10463;SDS011;5279;42.048;24.638;2023-07-29T00:30:14;2.43;;;1.80;;
10463;SDS011;5279;42.048;24.638;2023-07-29T00:32:41;2.83;;;1.87;;
10463;SDS011;5279;42.048;24.638;2023-07-29T00:35:08;2.23;;;2.03;;
10463;SDS011;5279;42.048;24.638;2023-07-29T00:37:37;2.50;;;1.93;;
10463;SDS011;5279;42.048;24.638;2023-07-29T00:40:06;1.83;;;1.73;;
10463;SDS011;5279;42.048;24.638;2023-07-29T00:42:40;2.43;;;1.60;;
10463;SDS011;5279;42.048;24.638;2023-07-29T00:45:08;2.30;;;1.83;;
10463;SDS011;5279;42.048;24.638;2023-07-29T00:47:36;6.03;;;1.87;;
10463;SDS011;5279;42.048;24.638;2023-07-29T00:50:03;1.80;;;1.70;;
10463;SDS011;5279;42.048;24.638;2023-07-29T00:52:31;2.53;;;2.13;;
10463;SDS011;5279;42.048;24.638;2023-07-29T00:55:00;1.83;;;1.73;;
10463;SDS011;5279;42.048;24.638;2023-07-29T00:57:27;2.13;;;1.87;;
10463;SDS011;5279;42.048;24.638;2023-07-29T00:59:56;2.00;;;1.80;;
10463;SDS011;5279;42.048;24.638;2023-07-29T01:02:23;1.70;;;1.60;;
10463;SDS011;5279;42.048;24.638;2023-07-29T01:04:51;3.13;;;1.87;;
10463;SDS011;5279;42.048;24.638;2023-07-29T01:10:21;1.83;;;1.73;;
10463;SDS011;5279;42.048;24.638;2023-07-29T01:12:59;2.37;;;2.17;;
10463;SDS011;5279;42.048;24.638;2023-07-29T01:15:32;2.30;;;2.10;;
10463;SDS011;5279;42.048;24.638;2023-07-29T01:18:07;2.00;;;1.90;;
10463;SDS011;5279;42.048;24.638;2023-07-29T01:20:38;2.17;;;1.97;;
10463;SDS011;5279;42.048;24.638;2023-07-29T01:23:07;2.37;;;2.10;;
10463;SDS011;5279;42.048;24.638;2023-07-29T01:25:35;2.70;;;2.30;;
10463;SDS011;5279;42.048;24.638;2023-07-29T01:28:02;1.80;;;1.70;;
10463;SDS011;5279;42.048;24.638;2023-07-29T01:30:30;2.23;;;2.00;;
10463;SDS011;5279;42.048;24.638;2023-07-29T01:33:04;2.80;;;2.03;;
10463;SDS011;5279;42.048;24.638;2023-07-29T01:35:39;2.30;;;2.10;;
10463;SDS011;5279;42.048;24.638;2023-07-29T01:38:13;2.00;;;1.90;;
10463;SDS011;5279;42.048;24.638;2023-07-29T01:40:45;2.00;;;1.90;;
10463;SDS011;5279;42.048;24.638;2023-07-29T01:43:14;2.10;;;1.90;;
10463;SDS011;5279;42.048;24.638;2023-07-29T01:45:43;2.87;;;1.90;;
10463;SDS011;5279;42.048;24.638;2023-07-29T01:48:10;2.30;;;1.93;;
10463;SDS011;5279;42.048;24.638;2023-07-29T01:50:37;2.23;;;2.03;;
10463;SDS011;5279;42.048;24.638;2023-07-29T01:53:04;2.10;;;1.90;;
10463;SDS011;5279;42.048;24.638;2023-07-29T01:55:31;2.20;;;1.90;;
10463;SDS011;5279;42.048;24.638;2023-07-29T01:57:59;1.97;;;1.70;;
10463;SDS011;5279;42.048;24.638;2023-07-29T02:00:27;2.40;;;2.17;;
10463;SDS011;5279;42.048;24.638;2023-07-29T02:02:54;3.03;;;1.80;;
10463;SDS011;5279;42.048;24.638;2023-07-29T02:05:21;2.63;;;2.07;;
10463;SDS011;5279;42.048;24.638;2023-07-29T02:07:48;2.00;;;1.90;;
10463;SDS011;5279;42.048;24.638;2023-07-29T02:10:15;2.30;;;2.03;;
10463;SDS011;5279;42.048;24.638;2023-07-29T02:12:42;5.40;;;2.20;;
10463;SDS011;5279;42.048;24.638;2023-07-29T02:15:10;2.30;;;1.93;;
10463;SDS011;5279;42.048;24.638;2023-07-29T02:17:38;2.20;;;2.00;;
10463;SDS011;5279;42.048;24.638;2023-07-29T02:20:08;5.03;;;1.90;;
10463;SDS011;5279;42.048;24.638;2023-07-29T02:22:36;2.43;;;2.17;;
10463;SDS011;5279;42.048;24.638;2023-07-29T02:25:03;2.33;;;2.13;;
10463;SDS011;5279;42.048;24.638;2023-07-29T02:27:30;5.30;;;2.20;;
10463;SDS011;5279;42.048;24.638;2023-07-29T02:29:58;2.30;;;2.10;;
10463;SDS011;5279;42.048;24.638;2023-07-29T02:32:27;2.10;;;2.00;;
10463;SDS011;5279;42.048;24.638;2023-07-29T02:34:54;2.20;;;2.00;;
10463;SDS011;5279;42.048;24.638;2023-07-29T02:37:21;2.20;;;1.87;;
10463;SDS011;5279;42.048;24.638;2023-07-29T02:39:49;2.23;;;2.03;;
10463;SDS011;5279;42.048;24.638;2023-07-29T02:42:16;2.83;;;2.13;;
10463;SDS011;5279;42.048;24.638;2023-07-29T02:44:43;2.10;;;1.90;;
10463;SDS011;5279;42.048;24.638;2023-07-29T02:47:10;2.70;;;2.30;;
10463;SDS011;5279;42.048;24.638;2023-07-29T02:49:38;3.27;;;2.20;;
10463;SDS011;5279;42.048;24.638;2023-07-29T02:52:05;3.93;;;2.00;;
10463;SDS011;5279;42.048;24.638;2023-07-29T02:54:32;2.63;;;1.97;;
10463;SDS011;5279;42.048;24.638;2023-07-29T02:57:00;2.10;;;1.90;;
10463;SDS011;5279;42.048;24.638;2023-07-29T02:59:27;2.30;;;2.10;;
10463;SDS011;5279;42.048;24.638;2023-07-29T03:01:54;2.20;;;2.10;;
10463;SDS011;5279;42.048;24.638;2023-07-29T03:04:20;2.10;;;2.00;;
10463;SDS011;5279;42.048;24.638;2023-07-29T03:06:49;2.87;;;2.00;;
10463;SDS011;5279;42.048;24.638;2023-07-29T03:09:16;3.53;;;2.10;;
10463;SDS011;5279;42.048;24.638;2023-07-29T03:11:43;2.77;;;2.03;;
10463;SDS011;5279;42.048;24.638;2023-07-29T03:14:11;2.67;;;2.07;;
10463;SDS011;5279;42.048;24.638;2023-07-29T03:16:38;2.03;;;1.87;;
10463;SDS011;5279;42.048;24.638;2023-07-29T03:19:04;3.07;;;2.27;;
10463;SDS011;5279;42.048;24.638;2023-07-29T03:21:31;4.67;;;2.30;;
10463;SDS011;5279;42.048;24.638;2023-07-29T03:24:00;4.23;;;2.20;;
10463;SDS011;5279;42.048;24.638;2023-07-29T03:26:27;2.43;;;2.23;;
10463;SDS011;5279;42.048;24.638;2023-07-29T03:28:54;1.97;;;1.87;;
10463;SDS011;5279;42.048;24.638;2023-07-29T03:31:21;2.60;;;2.30;;
10463;SDS011;5279;42.048;24.638;2023-07-29T03:33:48;2.40;;;2.20;;
10463;SDS011;5279;42.048;24.638;2023-07-29T03:36:15;2.57;;;2.07;;
10463;SDS011;5279;42.048;24.638;2023-07-29T03:38:42;2.00;;;1.90;;
10463;SDS011;5279;42.048;24.638;2023-07-29T03:41:11;2.73;;;2.17;;
10463;SDS011;5279;42.048;24.638;2023-07-29T03:43:38;2.20;;;2.00;;
10463;SDS011;5279;42.048;24.638;2023-07-29T03:46:05;2.20;;;2.10;;
10463;SDS011;5279;42.048;24.638;2023-07-29T03:48:32;2.57;;;2.00;;
10463;SDS011;5279;42.048;24.638;2023-07-29T03:51:00;2.30;;;2.10;;
10463;SDS011;5279;42.048;24.638;2023-07-29T03:53:27;2.10;;;2.00;;
10463;SDS011;5279;42.048;24.638;2023-07-29T03:55:54;2.20;;;2.00;;
10463;SDS011;5279;42.048;24.638;2023-07-29T03:58:22;2.00;;;1.73;;
10463;SDS011;5279;42.048;24.638;2023-07-29T04:00:49;2.07;;;1.97;;
10463;SDS011;5279;42.048;24.638;2023-07-29T04:03:16;2.20;;;2.00;;
10463;SDS011;5279;42.048;24.638;2023-07-29T04:05:43;2.80;;;1.90;;
10463;SDS011;5279;42.048;24.638;2023-07-29T04:08:10;2.37;;;2.17;;
10463;SDS011;5279;42.048;24.638;2023-07-29T04:10:38;2.13;;;1.93;;
10463;SDS011;5279;42.048;24.638;2023-07-29T04:13:05;2.40;;;2.03;;
10463;SDS011;5279;42.048;24.638;2023-07-29T04:15:33;2.00;;;1.83;;
10463;SDS011;5279;42.048;24.638;2023-07-29T04:18:01;2.07;;;1.97;;
10463;SDS011;5279;42.048;24.638;2023-07-29T04:20:28;2.27;;;2.07;;
10463;SDS011;5279;42.048;24.638;2023-07-29T04:22:55;3.33;;;2.13;;
10463;SDS011;5279;42.048;24.638;2023-07-29T04:25:22;2.23;;;2.03;;
10463;SDS011;5279;42.048;24.638;2023-07-29T04:27:49;4.10;;;2.20;;
10463;SDS011;5279;42.048;24.638;2023-07-29T04:30:16;1.97;;;1.80;;
10463;SDS011;5279;42.048;24.638;2023-07-29T04:32:45;2.20;;;2.00;;
10463;SDS011;5279;42.048;24.638;2023-07-29T04:35:13;2.53;;;1.90;;
10463;SDS011;5279;42.048;24.638;2023-07-29T04:37:40;2.37;;;2.10;;
10463;SDS011;5279;42.048;24.638;2023-07-29T04:40:08;5.13;;;2.10;;
10463;SDS011;5279;42.048;24.638;2023-07-29T04:42:36;1.83;;;1.73;;
10463;SDS011;5279;42.048;24.638;2023-07-29T04:45:03;1.90;;;1.80;;
10463;SDS011;5279;42.048;24.638;2023-07-29T04:47:31;1.90;;;1.80;;
10463;SDS011;5279;42.048;24.638;2023-07-29T04:50:00;2.47;;;2.00;;
10463;SDS011;5279;42.048;24.638;2023-07-29T04:52:27;2.10;;;1.80;;
10463;SDS011;5279;42.048;24.638;2023-07-29T04:54:53;2.40;;;2.20;;
10463;SDS011;5279;42.048;24.638;2023-07-29T04:57:20;1.93;;;1.83;;
10463;SDS011;5279;42.048;24.638;2023-07-29T04:59:47;2.80;;;2.30;;
10463;SDS011;5279;42.048;24.638;2023-07-29T05:02:14;2.20;;;2.00;;
10463;SDS011;5279;42.048;24.638;2023-07-29T05:04:41;2.43;;;2.10;;
10463;SDS011;5279;42.048;24.638;2023-07-29T05:07:10;2.10;;;1.90;;
10463;SDS011;5279;42.048;24.638;2023-07-29T05:09:37;2.13;;;1.93;;
10463;SDS011;5279;42.048;24.638;2023-07-29T05:12:04;2.57;;;2.37;;
10463;SDS011;5279;42.048;24.638;2023-07-29T05:14:32;2.20;;;2.00;;
10463;SDS011;5279;42.048;24.638;2023-07-29T05:16:59;2.57;;;2.37;;
10463;SDS011;5279;42.048;24.638;2023-07-29T05:19:26;3.50;;;2.50;;
10463;SDS011;5279;42.048;24.638;2023-07-29T05:21:53;2.93;;;2.73;;
10463;SDS011;5279;42.048;24.638;2023-07-29T05:24:22;4.23;;;2.70;;
10463;SDS011;5279;42.048;24.638;2023-07-29T05:26:48;3.27;;;2.97;;
10463;SDS011;5279;42.048;24.638;2023-07-29T05:29:16;8.67;;;3.80;;
10463;SDS011;5279;42.048;24.638;2023-07-29T05:31:43;5.70;;;3.27;;
10463;SDS011;5279;42.048;24.638;2023-07-29T05:34:10;3.40;;;3.10;;
10463;SDS011;5279;42.048;24.638;2023-07-29T05:36:37;5.50;;;3.27;;
10463;SDS011;5279;42.048;24.638;2023-07-29T05:39:04;6.63;;;3.47;;
10463;SDS011;5279;42.048;24.638;2023-07-29T05:41:33;4.17;;;3.03;;
10463;SDS011;5279;42.048;24.638;2023-07-29T05:44:00;4.00;;;3.03;;
10463;SDS011;5279;42.048;24.638;2023-07-29T05:46:27;3.77;;;2.70;;
10463;SDS011;5279;42.048;24.638;2023-07-29T05:48:54;3.30;;;3.00;;
10463;SDS011;5279;42.048;24.638;2023-07-29T05:51:21;3.10;;;2.80;;
10463;SDS011;5279;42.048;24.638;2023-07-29T05:53:49;4.30;;;2.70;;
10463;SDS011;5279;42.048;24.638;2023-07-29T05:56:16;4.13;;;2.97;;
10463;SDS011;5279;42.048;24.638;2023-07-29T05:58:44;4.73;;;3.00;;
10463;SDS011;5279;42.048;24.638;2023-07-29T06:01:11;3.27;;;2.73;;
10463;SDS011;5279;42.048;24.638;2023-07-29T06:03:38;2.90;;;2.70;;
10463;SDS011;5279;42.048;24.638;2023-07-29T06:06:05;3.27;;;2.97;;
10463;SDS011;5279;42.048;24.638;2023-07-29T06:08:32;3.23;;;2.80;;
10463;SDS011;5279;42.048;24.638;2023-07-29T06:11:00;3.97;;;2.80;;
10463;SDS011;5279;42.048;24.638;2023-07-29T06:13:27;4.53;;;2.80;;
10463;SDS011;5279;42.048;24.638;2023-07-29T06:15:56;4.43;;;2.50;;
10463;SDS011;5279;42.048;24.638;2023-07-29T06:18:23;5.13;;;2.77;;
10463;SDS011;5279;42.048;24.638;2023-07-29T06:20:50;4.53;;;2.87;;
10463;SDS011;5279;42.048;24.638;2023-07-29T06:23:17;4.63;;;3.00;;
10463;SDS011;5279;42.048;24.638;2023-07-29T06:25:44;2.93;;;2.67;;
10463;SDS011;5279;42.048;24.638;2023-07-29T06:28:12;2.50;;;2.30;;
10463;SDS011;5279;42.048;24.638;2023-07-29T06:30:39;4.90;;;2.57;;
10463;SDS011;5279;42.048;24.638;2023-07-29T06:33:07;2.83;;;2.60;;
10463;SDS011;5279;42.048;24.638;2023-07-29T06:35:34;3.70;;;2.60;;
10463;SDS011;5279;42.048;24.638;2023-07-29T06:38:01;5.33;;;3.03;;
10463;SDS011;5279;42.048;24.638;2023-07-29T06:40:28;4.37;;;2.70;;
10463;SDS011;5279;42.048;24.638;2023-07-29T06:42:55;3.20;;;2.43;;
10463;SDS011;5279;42.048;24.638;2023-07-29T06:45:22;5.17;;;2.67;;
10463;SDS011;5279;42.048;24.638;2023-07-29T06:47:49;3.50;;;2.50;;
10463;SDS011;5279;42.048;24.638;2023-07-29T06:50:18;3.83;;;2.50;;
10463;SDS011;5279;42.048;24.638;2023-07-29T06:52:45;3.63;;;2.67;;
10463;SDS011;5279;42.048;24.638;2023-07-29T06:55:11;2.80;;;2.40;;
10463;SDS011;5279;42.048;24.638;2023-07-29T06:57:39;3.40;;;2.30;;
10463;SDS011;5279;42.048;24.638;2023-07-29T07:00:06;2.97;;;2.50;;
10463;SDS011;5279;42.048;24.638;2023-07-29T07:02:34;4.33;;;2.87;;
10463;SDS011;5279;42.048;24.638;2023-07-29T07:05:01;2.57;;;2.37;;
10463;SDS011;5279;42.048;24.638;2023-07-29T07:07:29;3.23;;;2.37;;
10463;SDS011;5279;42.048;24.638;2023-07-29T07:09:56;5.17;;;2.73;;
10463;SDS011;5279;42.048;24.638;2023-07-29T07:12:23;3.13;;;2.67;;
10463;SDS011;5279;42.048;24.638;2023-07-29T07:14:50;2.27;;;2.07;;
10463;SDS011;5279;42.048;24.638;2023-07-29T07:17:17;4.47;;;2.30;;
10463;SDS011;5279;42.048;24.638;2023-07-29T07:19:44;2.53;;;2.27;;
10463;SDS011;5279;42.048;24.638;2023-07-29T07:22:17;3.00;;;2.57;;
10463;SDS011;5279;42.048;24.638;2023-07-29T07:24:46;2.93;;;2.67;;
10463;SDS011;5279;42.048;24.638;2023-07-29T07:27:12;2.55;;;2.35;;
10463;SDS011;5279;42.048;24.638;2023-07-29T07:29:39;3.17;;;2.60;;
10463;SDS011;5279;42.048;24.638;2023-07-29T07:32:06;4.43;;;2.55;;
10463;SDS011;5279;42.048;24.638;2023-07-29T07:34:33;3.15;;;2.60;;
10463;SDS011;5279;42.048;24.638;2023-07-29T07:37:00;2.60;;;2.40;;
10463;SDS011;5279;42.048;24.638;2023-07-29T07:39:35;2.70;;;2.50;;
10463;SDS011;5279;42.048;24.638;2023-07-29T07:42:03;3.00;;;2.67;;
10463;SDS011;5279;42.048;24.638;2023-07-29T07:44:31;2.65;;;2.30;;
10463;SDS011;5279;42.048;24.638;2023-07-29T07:46:57;5.53;;;2.50;;
10463;SDS011;5279;42.048;24.638;2023-07-29T07:49:25;3.00;;;2.55;;
10463;SDS011;5279;42.048;24.638;2023-07-29T07:51:52;2.53;;;2.33;;
10463;SDS011;5279;42.048;24.638;2023-07-29T07:54:18;2.47;;;2.20;;
10463;SDS011;5279;42.048;24.638;2023-07-29T07:56:45;2.70;;;2.47;;
10463;SDS011;5279;42.048;24.638;2023-07-29T07:59:14;2.67;;;2.47;;
10463;SDS011;5279;42.048;24.638;2023-07-29T08:01:41;3.35;;;2.25;;
10463;SDS011;5279;42.048;24.638;2023-07-29T08:10:52;3.78;;;2.38;;
10463;SDS011;5279;42.048;24.638;2023-07-29T08:13:19;2.53;;;2.33;;
10463;SDS011;5279;42.048;24.638;2023-07-29T08:15:48;2.70;;;2.50;;
10463;SDS011;5279;42.048;24.638;2023-07-29T08:18:16;2.50;;;2.30;;
10463;SDS011;5279;42.048;24.638;2023-07-29T08:20:51;2.70;;;2.50;;
10463;SDS011;5279;42.048;24.638;2023-07-29T08:23:18;4.20;;;2.40;;
10463;SDS011;5279;42.048;24.638;2023-07-29T08:25:49;2.30;;;2.20;;
10463;SDS011;5279;42.048;24.638;2023-07-29T08:28:17;2.50;;;2.30;;
10463;SDS011;5279;42.048;24.638;2023-07-29T08:30:44;4.93;;;2.60;;
10463;SDS011;5279;42.048;24.638;2023-07-29T08:33:12;2.35;;;2.15;;
10463;SDS011;5279;42.048;24.638;2023-07-29T08:35:39;6.25;;;2.65;;
10463;SDS011;5279;42.048;24.638;2023-07-29T08:38:06;6.80;;;2.40;;
10463;SDS011;5279;42.048;24.638;2023-07-29T08:40:34;2.88;;;2.10;;
10463;SDS011;5279;42.048;24.638;2023-07-29T08:43:03;5.13;;;2.40;;
10463;SDS011;5279;42.048;24.638;2023-07-29T08:45:31;2.22;;;2.00;;
10463;SDS011;5279;42.048;24.638;2023-07-29T08:48:02;2.78;;;2.30;;
10463;SDS011;5279;42.048;24.638;2023-07-29T08:50:32;2.10;;;1.92;;
10463;SDS011;5279;42.048;24.638;2023-07-29T08:53:01;3.10;;;2.15;;
10463;SDS011;5279;42.048;24.638;2023-07-29T08:55:30;2.63;;;2.38;;
10463;SDS011;5279;42.048;24.638;2023-07-29T08:57:58;3.00;;;2.40;;
10463;SDS011;5279;42.048;24.638;2023-07-29T09:00:26;2.72;;;2.10;;
10463;SDS011;5279;42.048;24.638;2023-07-29T09:02:54;2.50;;;2.30;;
10463;SDS011;5279;42.048;24.638;2023-07-29T09:05:23;2.33;;;1.95;;
10463;SDS011;5279;42.048;24.638;2023-07-29T09:07:51;3.75;;;2.10;;
10463;SDS011;5279;42.048;24.638;2023-07-29T09:10:21;3.35;;;2.03;;
10463;SDS011;5279;42.048;24.638;2023-07-29T09:12:48;3.42;;;2.08;;
10463;SDS011;5279;42.048;24.638;2023-07-29T09:15:25;2.33;;;2.03;;
10463;SDS011;5279;42.048;24.638;2023-07-29T09:17:53;2.17;;;1.88;;
10463;SDS011;5279;42.048;24.638;2023-07-29T09:20:25;2.25;;;2.05;;
10463;SDS011;5279;42.048;24.638;2023-07-29T09:22:55;3.00;;;2.20;;
10463;SDS011;5279;42.048;24.638;2023-07-29T09:25:25;3.33;;;2.20;;
10463;SDS011;5279;42.048;24.638;2023-07-29T09:27:53;2.85;;;2.17;;
10463;SDS011;5279;42.048;24.638;2023-07-29T09:30:25;1.85;;;1.75;;
10463;SDS011;5279;42.048;24.638;2023-07-29T09:32:54;3.45;;;1.88;;
10463;SDS011;5279;42.048;24.638;2023-07-29T09:35:22;2.15;;;1.75;;
10463;SDS011;5279;42.048;24.638;2023-07-29T09:37:50;2.45;;;1.88;;
10463;SDS011;5279;42.048;24.638;2023-07-29T09:40:18;2.25;;;2.13;;
10463;SDS011;5279;42.048;24.638;2023-07-29T09:42:48;4.68;;;1.77;;
10463;SDS011;5279;42.048;24.638;2023-07-29T09:45:20;2.80;;;1.60;;
10463;SDS011;5279;42.048;24.638;2023-07-29T09:47:48;2.00;;;1.90;;
10463;SDS011;5279;42.048;24.638;2023-07-29T09:50:15;2.83;;;1.77;;
10463;SDS011;5279;42.048;24.638;2023-07-29T09:52:42;1.70;;;1.60;;
10463;SDS011;5279;42.048;24.638;2023-07-29T09:55:11;2.22;;;2.00;;
10463;SDS011;5279;42.048;24.638;2023-07-29T09:57:40;3.28;;;2.13;;
10463;SDS011;5279;42.048;24.638;2023-07-29T10:00:09;2.45;;;2.25;;
10463;SDS011;5279;42.048;24.638;2023-07-29T10:02:38;2.00;;;1.90;;
10463;SDS011;5279;42.048;24.638;2023-07-29T10:05:06;4.82;;;2.20;;
10463;SDS011;5279;42.048;24.638;2023-07-29T10:07:34;4.05;;;2.20;;
10463;SDS011;5279;42.048;24.638;2023-07-29T10:10:03;2.72;;;1.95;;
10463;SDS011;5279;42.048;24.638;2023-07-29T10:12:31;2.38;;;2.17;;
10463;SDS011;5279;42.048;24.638;2023-07-29T10:15:02;2.75;;;2.10;;
10463;SDS011;5279;42.048;24.638;2023-07-29T10:17:31;1.90;;;1.80;;
10463;SDS011;5279;42.048;24.638;2023-07-29T10:20:00;2.28;;;1.95;;
10463;SDS011;5279;42.048;24.638;2023-07-29T10:22:33;3.92;;;1.73;;
10463;SDS011;5279;42.048;24.638;2023-07-29T10:25:03;1.88;;;1.67;;
10463;SDS011;5279;42.048;24.638;2023-07-29T10:27:33;1.90;;;1.80;;
10463;SDS011;5279;42.048;24.638;2023-07-29T10:30:10;2.00;;;1.90;;
10463;SDS011;5279;42.048;24.638;2023-07-29T10:32:38;2.22;;;2.03;;
10463;SDS011;5279;42.048;24.638;2023-07-29T10:35:08;2.00;;;1.80;;
10463;SDS011;5279;42.048;24.638;2023-07-29T10:37:35;2.50;;;2.30;;
10463;SDS011;5279;42.048;24.638;2023-07-29T10:40:05;1.95;;;1.77;;
10463;SDS011;5279;42.048;24.638;2023-07-29T10:42:34;1.90;;;1.80;;
10463;SDS011;5279;42.048;24.638;2023-07-29T10:45:16;4.05;;;1.90;;
10463;SDS011;5279;42.048;24.638;2023-07-29T10:47:44;3.50;;;1.83;;
10463;SDS011;5279;42.048;24.638;2023-07-29T10:50:16;2.83;;;1.80;;
10463;SDS011;5279;42.048;24.638;2023-07-29T10:52:48;2.10;;;2.00;;
10463;SDS011;5279;42.048;24.638;2023-07-29T10:55:26;2.13;;;1.90;;
10463;SDS011;5279;42.048;24.638;2023-07-29T10:58:05;2.22;;;2.00;;
10463;SDS011;5279;42.048;24.638;2023-07-29T11:00:35;2.03;;;1.92;;
10463;SDS011;5279;42.048;24.638;2023-07-29T11:03:02;4.82;;;2.05;;
10463;SDS011;5279;42.048;24.638;2023-07-29T11:05:48;2.35;;;1.70;;
10463;SDS011;5279;42.048;24.638;2023-07-29T11:08:20;3.53;;;1.80;;
10463;SDS011;5279;42.048;24.638;2023-07-29T11:10:59;3.47;;;1.75;;
10463;SDS011;5279;42.048;24.638;2023-07-29T11:13:28;4.25;;;2.13;;
10463;SDS011;5279;42.048;24.638;2023-07-29T11:15:57;1.90;;;1.70;;
10463;SDS011;5279;42.048;24.638;2023-07-29T11:18:26;2.10;;;1.90;;
10463;SDS011;5279;42.048;24.638;2023-07-29T11:20:55;2.10;;;1.90;;
10463;SDS011;5279;42.048;24.638;2023-07-29T11:23:27;2.17;;;1.98;;
10463;SDS011;5279;42.048;24.638;2023-07-29T11:25:55;1.58;;;1.48;;
10463;SDS011;5279;42.048;24.638;2023-07-29T11:28:23;2.13;;;1.75;;
10463;SDS011;5279;42.048;24.638;2023-07-29T11:30:51;1.98;;;1.67;;
10463;SDS011;5279;42.048;24.638;2023-07-29T11:33:21;1.85;;;1.75;;
10463;SDS011;5279;42.048;24.638;2023-07-29T11:35:49;1.67;;;1.58;;
10463;SDS011;5279;42.048;24.638;2023-07-29T11:38:17;1.77;;;1.60;;
10463;SDS011;5279;42.048;24.638;2023-07-29T11:40:53;2.05;;;1.45;;
10463;SDS011;5279;42.048;24.638;2023-07-29T11:43:20;2.55;;;1.75;;
10463;SDS011;5279;42.048;24.638;2023-07-29T11:45:47;2.78;;;1.50;;
10463;SDS011;5279;42.048;24.638;2023-07-29T11:48:14;1.40;;;1.30;;
10463;SDS011;5279;42.048;24.638;2023-07-29T11:50:43;3.33;;;1.60;;
10463;SDS011;5279;42.048;24.638;2023-07-29T11:53:11;1.65;;;1.55;;
10463;SDS011;5279;42.048;24.638;2023-07-29T11:55:38;1.58;;;1.48;;
10463;SDS011;5279;42.048;24.638;2023-07-29T11:58:05;2.25;;;1.67;;
10463;SDS011;5279;42.048;24.638;2023-07-29T12:00:32;2.08;;;1.70;;
10463;SDS011;5279;42.048;24.638;2023-07-29T12:03:00;1.65;;;1.50;;
10463;SDS011;5279;42.048;24.638;2023-07-29T12:05:27;2.03;;;1.70;;
10463;SDS011;5279;42.048;24.638;2023-07-29T12:07:57;1.58;;;1.48;;
10463;SDS011;5279;42.048;24.638;2023-07-29T12:10:24;1.60;;;1.50;;
10463;SDS011;5279;42.048;24.638;2023-07-29T12:12:52;1.80;;;1.70;;
10463;SDS011;5279;42.048;24.638;2023-07-29T12:15:25;1.67;;;1.55;;
10463;SDS011;5279;42.048;24.638;2023-07-29T12:17:54;1.50;;;1.40;;
10463;SDS011;5279;42.048;24.638;2023-07-29T12:20:25;2.60;;;1.60;;
10463;SDS011;5279;42.048;24.638;2023-07-29T12:22:53;2.28;;;1.80;;
10463;SDS011;5279;42.048;24.638;2023-07-29T12:25:22;2.08;;;1.67;;
10463;SDS011;5279;42.048;24.638;2023-07-29T12:27:49;1.63;;;1.48;;
10463;SDS011;5279;42.048;24.638;2023-07-29T12:30:16;1.60;;;1.50;;
10463;SDS011;5279;42.048;24.638;2023-07-29T12:32:46;1.40;;;1.30;;
10463;SDS011;5279;42.048;24.638;2023-07-29T12:35:14;1.40;;;1.30;;
10463;SDS011;5279;42.048;24.638;2023-07-29T12:37:41;1.40;;;1.30;;
10463;SDS011;5279;42.048;24.638;2023-07-29T12:40:19;3.45;;;1.52;;
10463;SDS011;5279;42.048;24.638;2023-07-29T12:42:49;1.63;;;1.52;;
10463;SDS011;5279;42.048;24.638;2023-07-29T12:45:17;1.50;;;1.40;;
10463;SDS011;5279;42.048;24.638;2023-07-29T12:47:44;1.80;;;1.70;;
10463;SDS011;5279;42.048;24.638;2023-07-29T12:50:11;3.22;;;1.50;;
10463;SDS011;5279;42.048;24.638;2023-07-29T12:52:38;1.65;;;1.40;;
10463;SDS011;5279;42.048;24.638;2023-07-29T12:55:05;2.55;;;1.67;;
10463;SDS011;5279;42.048;24.638;2023-07-29T12:57:35;1.40;;;1.30;;
10463;SDS011;5279;42.048;24.638;2023-07-29T13:00:02;2.78;;;1.50;;
10463;SDS011;5279;42.048;24.638;2023-07-29T13:02:31;1.58;;;1.48;;
10463;SDS011;5279;42.048;24.638;2023-07-29T13:04:58;2.40;;;1.33;;
10463;SDS011;5279;42.048;24.638;2023-07-29T13:07:24;1.73;;;1.63;;
10463;SDS011;5279;42.048;24.638;2023-07-29T13:09:51;1.90;;;1.80;;
10463;SDS011;5279;42.048;24.638;2023-07-29T13:12:18;1.83;;;1.70;;
10463;SDS011;5279;42.048;24.638;2023-07-29T13:14:46;1.52;;;1.42;;
10463;SDS011;5279;42.048;24.638;2023-07-29T13:17:13;1.65;;;1.55;;
10463;SDS011;5279;42.048;24.638;2023-07-29T13:19:40;1.48;;;1.38;;
10463;SDS011;5279;42.048;24.638;2023-07-29T13:22:07;2.67;;;1.40;;
10463;SDS011;5279;42.048;24.638;2023-07-29T13:24:34;1.48;;;1.38;;
10463;SDS011;5279;42.048;24.638;2023-07-29T13:27:01;1.60;;;1.50;;
10463;SDS011;5279;42.048;24.638;2023-07-29T13:29:28;1.95;;;1.73;;
10463;SDS011;5279;42.048;24.638;2023-07-29T13:31:56;1.50;;;1.40;;
10463;SDS011;5279;42.048;24.638;2023-07-29T13:34:23;2.17;;;1.60;;
10463;SDS011;5279;42.048;24.638;2023-07-29T13:36:50;2.28;;;1.80;;
10463;SDS011;5279;42.048;24.638;2023-07-29T13:39:17;3.70;;;1.60;;
10463;SDS011;5279;42.048;24.638;2023-07-29T13:41:44;1.55;;;1.45;;
10463;SDS011;5279;42.048;24.638;2023-07-29T13:44:11;1.50;;;1.40;;
10463;SDS011;5279;42.048;24.638;2023-07-29T13:46:37;1.40;;;1.30;;
10463;SDS011;5279;42.048;24.638;2023-07-29T13:49:06;3.83;;;1.50;;
10463;SDS011;5279;42.048;24.638;2023-07-29T13:51:33;1.48;;;1.38;;
10463;SDS011;5279;42.048;24.638;2023-07-29T13:53:59;1.40;;;1.30;;
10463;SDS011;5279;42.048;24.638;2023-07-29T13:56:26;2.90;;;1.30;;
10463;SDS011;5279;42.048;24.638;2023-07-29T13:58:53;1.67;;;1.30;;
10463;SDS011;5279;42.048;24.638;2023-07-29T14:01:20;1.55;;;1.45;;
10463;SDS011;5279;42.048;24.638;2023-07-29T14:03:47;1.35;;;1.25;;
10463;SDS011;5279;42.048;24.638;2023-07-29T14:06:15;1.30;;;1.20;;
10463;SDS011;5279;42.048;24.638;2023-07-29T14:08:42;1.63;;;1.52;;
10463;SDS011;5279;42.048;24.638;2023-07-29T14:11:10;3.33;;;1.80;;
10463;SDS011;5279;42.048;24.638;2023-07-29T14:13:36;1.30;;;1.20;;
10463;SDS011;5279;42.048;24.638;2023-07-29T14:16:03;2.20;;;1.50;;
10463;SDS011;5279;42.048;24.638;2023-07-29T14:18:30;1.30;;;1.20;;
10463;SDS011;5279;42.048;24.638;2023-07-29T14:20:57;1.40;;;1.30;;
10463;SDS011;5279;42.048;24.638;2023-07-29T14:23:26;1.25;;;1.25;;
10463;SDS011;5279;42.048;24.638;2023-07-29T14:25:53;1.38;;;1.27;;
10463;SDS011;5279;42.048;24.638;2023-07-29T14:28:20;1.30;;;1.20;;
10463;SDS011;5279;42.048;24.638;2023-07-29T14:30:47;2.08;;;0.95;;
10463;SDS011;5279;42.048;24.638;2023-07-29T14:33:14;1.15;;;1.10;;
10463;SDS011;5279;42.048;24.638;2023-07-29T14:35:40;1.08;;;1.08;;
10463;SDS011;5279;42.048;24.638;2023-07-29T14:38:07;1.13;;;0.95;;
10463;SDS011;5279;42.048;24.638;2023-07-29T14:40:36;2.03;;;0.90;;
10463;SDS011;5279;42.048;24.638;2023-07-29T14:43:03;1.20;;;1.10;;
10463;SDS011;5279;42.048;24.638;2023-07-29T14:45:30;1.20;;;1.10;;
10463;SDS011;5279;42.048;24.638;2023-07-29T14:47:56;2.20;;;1.13;;
10463;SDS011;5279;42.048;24.638;2023-07-29T14:50:23;1.02;;;0.93;;
10463;SDS011;5279;42.048;24.638;2023-07-29T14:52:50;1.13;;;1.02;;
10463;SDS011;5279;42.048;24.638;2023-07-29T14:55:17;1.17;;;1.08;;
10463;SDS011;5279;42.048;24.638;2023-07-29T14:57:47;1.45;;;1.00;;
10463;SDS011;5279;42.048;24.638;2023-07-29T15:00:14;1.70;;;0.80;;
10463;SDS011;5279;42.048;24.638;2023-07-29T15:02:41;1.55;;;1.00;;